Airfield :
LOGIN :

Register | Disclaimer

   EN    FR    IT 

 










Legend :    VFR   Marginal VFR   IFR   Intensive IFR   Very Intensive IFR
Visi :
Ceiling :
>= 8 km
>= 3000ft
5 to 8 km
1000 to 3000 ft
1500m to 5 km
500 to 1000 ft
800 to 1500m
200 to 500 ft
< 800m
< 200 ft
Symbols :   Thunderstorms  Fog  Heavy snow  Heavy precipitations  Wind > 20 kt
SIGMETs :     Misc.  Thunderstorms  Icing  Turbulence  Mountain Waves  Volcanic Ashes






- Airport Elevation : 288 ft
- IATA code : BZZ


EGVN - RAF Brize Norton

CURRENT METAR :
  • 191650Z 16001KT CAVOK 04/M01 Q1047 NOSIG

EXPIRED METARs :
  • 191620Z 24001KT CAVOK 05/M00 Q1047 NOSIG RMK BLU BLU
  • 191550Z 30002KT CAVOK 06/M01 Q1047 NOSIG RMK BLU BLU
  • 191523Z 00000KT CAVOK 06/M01 Q1046 NOSIG RMK BLU BLU
  • 191450Z 03003KT CAVOK 07/M01 Q1046 NOSIG RMK BLU BLU
  • 191420Z 35002KT CAVOK 07/M01 Q1046 NOSIG RMK BLU BLU

TAF TAF EGVN
Valid from the 19 at 15:00 until the 20 at 15:00 UTC


191327Z 1915/2015 31003KT CAVOK
PROB40 1922/2010 4000 MIFG BR
PROB30
TEMPO 2002/2009 0600 FZFG SCT000



MET'MAP, your aeronautical weather chart ! - Copyright ORBIFLY December 2007 - Disclaimer

ORBIFLY MET'MAP TEAM :

Programming & Development : Alexandra Zaïnal
Concept & original design : Baudouin d'Aumeries
Assistance for programming : Marc-Olivier Méhu
Technical & hardware support : Manuel Goepfert

Contact : metmap@orbifly.com




SOURCES & CREDITS :

   NOAA